Leopold, Missouri
Current Conditions -  °F | °C
As of 9:53 AM on Saturday 25 Oct 2014 (Local Time) from KCGI Reporting Station
Haze Haze  
Wind Chill: 63°   Ceiling: Unl
Heat Index: 63°   Visibility: 5mi
Dew Point: 58°   Wind: 6mph
Humidity: 84%   Direction: 270°W
Pressure: 30.06"   Gusts: NA
Location:  37.26°N, 89.93°W
Report Text: KCGI 251453Z 27005KT 5SM HZ CLR 17/14 A3006 RMK AO2 SLP178 T01720144 52007
Loading
Personal Weather Stations






























Interactive Weather Map
Tropical Storm Tracking
New forecast layout! Learn more

10-Day Weather Forecast

Advertisements
Track Severe Weather on mobile